Date,TemperatureHighF,TemperatureAvgF,TemperatureLowF,DewpointHighF,DewpointAvgF,DewpointLowF,HumidityHigh,HumidityAvg,HumidityLow,PressureMaxIn,PressureMinIn,WindSpeedMaxMPH,WindSpeedAvgMPH,GustSpeedMaxMPH,PrecipitationSumIn
2013-2-1,9,2,-5,-12,-18,-25,37,37,37,29.92,29.75,20,5,20,0.00
2013-2-2,14,0,-8,-8,-23,-28,37,32,27,29.92,29.80,12,4,12,0.00
2013-2-3,13,3,-2,-15,-23,-27,27,27,27,29.80,29.63,20,5,20,0.00
2013-2-4,16,1,-9,-13,-25,-34,27,27,26,29.80,29.69,11,2,12,0.00
2013-2-5,21,10,-1,-8,-18,-27,31,27,25,29.86,29.51,19,4,19,0.00
2013-2-6,23,11,-2,-5,-15,-28,39,29,24,30.01,29.83,8,1,8,0.00
2013-2-7,21,18,15,2,-2,-11,44,40,28,30.07,29.98,17,4,17,0.00
2013-2-8,26,15,6,-2,-11,-19,42,30,24,30.22,30.04,13,5,16,0.00
2013-2-9,25,16,6,1,-10,-20,43,30,24,30.19,29.92,18,5,18,0.00
2013-2-10,32,25,20,26,10,1,79,54,40,29.92,29.30,16,3,16,0.00
2013-2-11,33,26,17,29,11,-8,86,55,30,29.66,29.15,20,4,20,0.00
2013-2-12,25,20,14,1,-4,-8,48,34,24,29.78,29.60,12,2,12,0.00
2013-2-13,42,26,15,8,1,-4,46,35,21,29.60,29.48,8,2,9,0.04
2013-2-14,29,22,14,16,-1,-14,65,38,25,29.80,29.51,22,6,22,0.00
2013-2-15,18,10,0,-8,-16,-27,36,29,26,29.98,29.80,16,6,16,0.00
2013-2-16,19,6,-1,-11,-21,-28,27,26,25,29.98,29.89,15,4,15,0.00
2013-2-17,24,9,-5,-8,-19,-31,31,26,24,29.98,29.78,15,3,15,0.00
2013-2-18,34,27,13,20,3,-15,63,36,25,29.78,29.33,16,6,16,0.00
2013-2-19,28,12,7,9,-9,-14,46,36,28,29.83,29.27,34,13,34,0.00
2013-2-20,14,9,6,-8,-15,-19,36,31,26,30.22,29.83,33,12,33,0.00
2013-2-21,21,17,10,4,-5,-18,46,37,26,30.31,30.13,16,7,16,0.00
2013-2-22,23,20,16,4,2,-3,46,44,41,30.13,29.69,7,3,7,0.00
2013-2-23,34,24,16,8,3,-2,46,40,25,29.72,29.57,14,3,14,0.00
2013-2-24,33,26,23,5,1,-6,44,34,23,29.98,29.72,13,4,13,0.00
2013-2-25,36,28,20,8,1,-4,58,31,22,29.98,29.92,9,2,9,0.00
2013-2-26,33,29,25,8,1,-5,43,30,23,29.98,29.80,14,5,14,0.00
2013-2-27,31,29,27,16,7,1,57,41,30,29.80,29.66,22,9,22,0.00
2013-2-28,29,23,20,13,-1,-8,52,34,24,30.07,29.75,26,12,26,0.00